sensor_id;sensor_type;location;lat;lon;timestamp;temperature;humidity
67817;DHT22;54614;47.576;7.524;2023-04-25T00:01:47;25.30;50.20
67817;DHT22;54614;47.576;7.524;2023-04-25T00:04:13;25.30;50.30
67817;DHT22;54614;47.576;7.524;2023-04-25T00:06:38;25.30;50.10
67817;DHT22;54614;47.576;7.524;2023-04-25T00:09:05;25.30;50.20
67817;DHT22;54614;47.576;7.524;2023-04-25T00:11:36;25.30;50.20
67817;DHT22;54614;47.576;7.524;2023-04-25T00:14:03;25.20;50.10
67817;DHT22;54614;47.576;7.524;2023-04-25T00:16:30;25.20;50.10
67817;DHT22;54614;47.576;7.524;2023-04-25T00:18:59;25.30;50.20
67817;DHT22;54614;47.576;7.524;2023-04-25T00:21:25;25.20;50.10
67817;DHT22;54614;47.576;7.524;2023-04-25T00:23:53;25.20;50.00
67817;DHT22;54614;47.576;7.524;2023-04-25T00:26:19;25.30;50.20
67817;DHT22;54614;47.576;7.524;2023-04-25T00:28:46;25.20;50.10
67817;DHT22;54614;47.576;7.524;2023-04-25T00:31:13;25.20;50.20
67817;DHT22;54614;47.576;7.524;2023-04-25T00:33:39;25.20;50.20
67817;DHT22;54614;47.576;7.524;2023-04-25T00:36:05;25.20;50.20
67817;DHT22;54614;47.576;7.524;2023-04-25T00:38:32;25.20;49.50
67817;DHT22;54614;47.576;7.524;2023-04-25T00:40:58;25.20;50.10
67817;DHT22;54614;47.576;7.524;2023-04-25T00:43:26;25.20;50.00
67817;DHT22;54614;47.576;7.524;2023-04-25T00:45:53;25.20;50.00
67817;DHT22;54614;47.576;7.524;2023-04-25T00:48:21;25.20;50.00
67817;DHT22;54614;47.576;7.524;2023-04-25T00:50:58;25.20;50.10
67817;DHT22;54614;47.576;7.524;2023-04-25T00:53:26;25.20;50.00
67817;DHT22;54614;47.576;7.524;2023-04-25T00:55:53;25.20;50.10
67817;DHT22;54614;47.576;7.524;2023-04-25T00:58:21;25.20;50.00
67817;DHT22;54614;47.576;7.524;2023-04-25T01:00:49;25.20;50.00
67817;DHT22;54614;47.576;7.524;2023-04-25T01:03:16;25.20;50.00
67817;DHT22;54614;47.576;7.524;2023-04-25T01:05:45;25.20;50.00
67817;DHT22;54614;47.576;7.524;2023-04-25T01:08:12;25.10;49.90
67817;DHT22;54614;47.576;7.524;2023-04-25T01:10:39;25.10;50.00
67817;DHT22;54614;47.576;7.524;2023-04-25T01:13:06;25.10;49.90
67817;DHT22;54614;47.576;7.524;2023-04-25T01:15:33;25.10;50.00
67817;DHT22;54614;47.576;7.524;2023-04-25T01:18:00;25.20;50.10
67817;DHT22;54614;47.576;7.524;2023-04-25T01:20:27;25.10;49.90
67817;DHT22;54614;47.576;7.524;2023-04-25T01:22:55;25.10;50.00
67817;DHT22;54614;47.576;7.524;2023-04-25T01:25:23;25.10;50.00
67817;DHT22;54614;47.576;7.524;2023-04-25T01:27:49;25.10;50.00
67817;DHT22;54614;47.576;7.524;2023-04-25T01:30:16;25.10;50.00
67817;DHT22;54614;47.576;7.524;2023-04-25T01:32:43;25.10;50.00
67817;DHT22;54614;47.576;7.524;2023-04-25T01:35:11;25.10;50.00
67817;DHT22;54614;47.576;7.524;2023-04-25T01:37:44;25.10;50.00
67817;DHT22;54614;47.576;7.524;2023-04-25T01:40:11;25.10;50.00
67817;DHT22;54614;47.576;7.524;2023-04-25T01:42:41;25.10;50.60
67817;DHT22;54614;47.576;7.524;2023-04-25T01:45:09;25.10;50.00
67817;DHT22;54614;47.576;7.524;2023-04-25T01:47:37;25.10;50.00
67817;DHT22;54614;47.576;7.524;2023-04-25T01:50:06;25.00;50.00
67817;DHT22;54614;47.576;7.524;2023-04-25T01:52:33;25.00;50.00
67817;DHT22;54614;47.576;7.524;2023-04-25T01:55:00;25.00;49.90
67817;DHT22;54614;47.576;7.524;2023-04-25T01:57:28;25.00;50.00
67817;DHT22;54614;47.576;7.524;2023-04-25T01:59:59;25.00;50.00
67817;DHT22;54614;47.576;7.524;2023-04-25T02:02:27;25.00;49.80
67817;DHT22;54614;47.576;7.524;2023-04-25T02:04:53;25.00;49.90
67817;DHT22;54614;47.576;7.524;2023-04-25T02:07:20;25.00;49.90
67817;DHT22;54614;47.576;7.524;2023-04-25T02:09:46;25.00;49.80
67817;DHT22;54614;47.576;7.524;2023-04-25T02:12:12;25.00;49.90
67817;DHT22;54614;47.576;7.524;2023-04-25T02:14:37;25.00;50.10
67817;DHT22;54614;47.576;7.524;2023-04-25T02:17:03;25.00;50.10
67817;DHT22;54614;47.576;7.524;2023-04-25T02:19:29;25.00;50.00
67817;DHT22;54614;47.576;7.524;2023-04-25T02:21:55;25.00;50.10
67817;DHT22;54614;47.576;7.524;2023-04-25T02:24:22;25.00;50.00
67817;DHT22;54614;47.576;7.524;2023-04-25T02:26:48;25.00;50.00
67817;DHT22;54614;47.576;7.524;2023-04-25T02:29:15;25.00;50.00
67817;DHT22;54614;47.576;7.524;2023-04-25T02:31:41;25.00;50.10
67817;DHT22;54614;47.576;7.524;2023-04-25T02:34:08;25.00;50.00
67817;DHT22;54614;47.576;7.524;2023-04-25T02:36:33;25.00;50.00
67817;DHT22;54614;47.576;7.524;2023-04-25T02:39:01;24.90;50.00
67817;DHT22;54614;47.576;7.524;2023-04-25T02:41:28;25.00;50.10
67817;DHT22;54614;47.576;7.524;2023-04-25T02:43:54;25.00;50.00
67817;DHT22;54614;47.576;7.524;2023-04-25T02:46:20;25.00;50.10
67817;DHT22;54614;47.576;7.524;2023-04-25T02:48:46;25.00;50.00
67817;DHT22;54614;47.576;7.524;2023-04-25T02:51:12;24.90;50.00
67817;DHT22;54614;47.576;7.524;2023-04-25T02:53:38;24.90;50.00
67817;DHT22;54614;47.576;7.524;2023-04-25T02:56:04;25.00;50.00
67817;DHT22;54614;47.576;7.524;2023-04-25T02:58:30;24.90;50.00
67817;DHT22;54614;47.576;7.524;2023-04-25T03:00:56;24.90;50.10
67817;DHT22;54614;47.576;7.524;2023-04-25T03:03:22;24.90;50.00
67817;DHT22;54614;47.576;7.524;2023-04-25T03:05:49;24.90;50.10
67817;DHT22;54614;47.576;7.524;2023-04-25T03:08:16;24.90;50.10
67817;DHT22;54614;47.576;7.524;2023-04-25T03:10:43;24.90;50.10
67817;DHT22;54614;47.576;7.524;2023-04-25T03:13:10;24.90;50.10
67817;DHT22;54614;47.576;7.524;2023-04-25T03:15:37;24.90;50.10
67817;DHT22;54614;47.576;7.524;2023-04-25T03:18:03;24.90;50.10
67817;DHT22;54614;47.576;7.524;2023-04-25T03:20:29;24.90;50.10
67817;DHT22;54614;47.576;7.524;2023-04-25T03:22:55;24.90;50.10
67817;DHT22;54614;47.576;7.524;2023-04-25T03:25:21;24.90;50.10
67817;DHT22;54614;47.576;7.524;2023-04-25T03:27:47;24.90;50.10
67817;DHT22;54614;47.576;7.524;2023-04-25T03:30:13;24.80;50.10
67817;DHT22;54614;47.576;7.524;2023-04-25T03:32:39;24.80;50.00
67817;DHT22;54614;47.576;7.524;2023-04-25T03:35:05;24.80;50.00
67817;DHT22;54614;47.576;7.524;2023-04-25T03:37:31;24.90;50.10
67817;DHT22;54614;47.576;7.524;2023-04-25T03:39:57;24.90;50.20
67817;DHT22;54614;47.576;7.524;2023-04-25T03:42:22;24.80;50.00
67817;DHT22;54614;47.576;7.524;2023-04-25T03:44:49;24.80;50.00
67817;DHT22;54614;47.576;7.524;2023-04-25T03:47:15;24.90;50.20
67817;DHT22;54614;47.576;7.524;2023-04-25T03:49:41;24.80;50.00
67817;DHT22;54614;47.576;7.524;2023-04-25T03:52:07;24.80;50.00
67817;DHT22;54614;47.576;7.524;2023-04-25T03:54:33;24.80;50.10
67817;DHT22;54614;47.576;7.524;2023-04-25T03:56:59;24.80;50.10
67817;DHT22;54614;47.576;7.524;2023-04-25T03:59:25;24.80;50.00
67817;DHT22;54614;47.576;7.524;2023-04-25T04:01:52;24.80;50.00
67817;DHT22;54614;47.576;7.524;2023-04-25T04:04:18;24.80;50.00
67817;DHT22;54614;47.576;7.524;2023-04-25T04:06:44;24.80;50.00
67817;DHT22;54614;47.576;7.524;2023-04-25T04:09:10;24.80;50.70
67817;DHT22;54614;47.576;7.524;2023-04-25T04:11:37;24.80;50.10
67817;DHT22;54614;47.576;7.524;2023-04-25T04:14:05;24.80;50.10
67817;DHT22;54614;47.576;7.524;2023-04-25T04:16:32;24.80;50.00
67817;DHT22;54614;47.576;7.524;2023-04-25T04:18:58;24.80;50.00
67817;DHT22;54614;47.576;7.524;2023-04-25T04:21:24;24.80;50.00
67817;DHT22;54614;47.576;7.524;2023-04-25T04:23:50;24.80;49.80
67817;DHT22;54614;47.576;7.524;2023-04-25T04:26:16;24.80;49.90
67817;DHT22;54614;47.576;7.524;2023-04-25T04:28:42;24.80;49.90
67817;DHT22;54614;47.576;7.524;2023-04-25T04:31:10;24.80;50.00
67817;DHT22;54614;47.576;7.524;2023-04-25T04:33:36;24.80;50.00
67817;DHT22;54614;47.576;7.524;2023-04-25T04:36:03;24.80;49.90
67817;DHT22;54614;47.576;7.524;2023-04-25T04:38:30;24.80;50.00
67817;DHT22;54614;47.576;7.524;2023-04-25T04:40:56;24.80;49.90
67817;DHT22;54614;47.576;7.524;2023-04-25T04:43:22;24.80;49.90
67817;DHT22;54614;47.576;7.524;2023-04-25T04:45:48;24.70;49.80
67817;DHT22;54614;47.576;7.524;2023-04-25T04:48:16;24.80;49.80
67817;DHT22;54614;47.576;7.524;2023-04-25T04:50:45;24.70;49.70
67817;DHT22;54614;47.576;7.524;2023-04-25T04:53:11;24.70;49.60
67817;DHT22;54614;47.576;7.524;2023-04-25T04:55:37;24.70;49.70
67817;DHT22;54614;47.576;7.524;2023-04-25T04:58:03;24.80;49.70
67817;DHT22;54614;47.576;7.524;2023-04-25T05:00:29;24.70;49.60
67817;DHT22;54614;47.576;7.524;2023-04-25T05:02:55;24.70;49.70
67817;DHT22;54614;47.576;7.524;2023-04-25T05:05:22;24.70;49.60
67817;DHT22;54614;47.576;7.524;2023-04-25T05:07:47;24.70;49.60
67817;DHT22;54614;47.576;7.524;2023-04-25T05:10:13;24.70;49.60
67817;DHT22;54614;47.576;7.524;2023-04-25T05:12:39;24.70;49.70
67817;DHT22;54614;47.576;7.524;2023-04-25T05:15:05;24.70;49.60
67817;DHT22;54614;47.576;7.524;2023-04-25T05:17:32;24.70;49.80
67817;DHT22;54614;47.576;7.524;2023-04-25T05:19:58;24.70;50.00
67817;DHT22;54614;47.576;7.524;2023-04-25T05:22:24;24.70;49.70
67817;DHT22;54614;47.576;7.524;2023-04-25T05:24:51;24.70;49.80
67817;DHT22;54614;47.576;7.524;2023-04-25T05:27:20;24.70;49.80
67817;DHT22;54614;47.576;7.524;2023-04-25T05:29:45;24.70;49.80
67817;DHT22;54614;47.576;7.524;2023-04-25T05:32:11;24.70;49.90
67817;DHT22;54614;47.576;7.524;2023-04-25T05:34:37;24.70;49.80
67817;DHT22;54614;47.576;7.524;2023-04-25T05:37:03;24.70;49.90
67817;DHT22;54614;47.576;7.524;2023-04-25T05:39:29;24.70;50.00
67817;DHT22;54614;47.576;7.524;2023-04-25T05:41:55;24.70;49.90
67817;DHT22;54614;47.576;7.524;2023-04-25T05:44:21;24.60;49.90
67817;DHT22;54614;47.576;7.524;2023-04-25T05:46:46;24.70;50.60
67817;DHT22;54614;47.576;7.524;2023-04-25T05:49:13;24.70;50.10
67817;DHT22;54614;47.576;7.524;2023-04-25T05:51:38;24.70;50.10
67817;DHT22;54614;47.576;7.524;2023-04-25T05:54:04;24.70;50.00
67817;DHT22;54614;47.576;7.524;2023-04-25T05:56:30;24.70;50.10
67817;DHT22;54614;47.576;7.524;2023-04-25T05:58:56;24.70;50.10
67817;DHT22;54614;47.576;7.524;2023-04-25T06:01:22;24.70;50.10
67817;DHT22;54614;47.576;7.524;2023-04-25T06:03:49;24.70;50.20
67817;DHT22;54614;47.576;7.524;2023-04-25T06:06:16;24.70;50.30
67817;DHT22;54614;47.576;7.524;2023-04-25T06:08:42;24.70;50.10
67817;DHT22;54614;47.576;7.524;2023-04-25T06:11:08;24.70;50.20
67817;DHT22;54614;47.576;7.524;2023-04-25T06:13:34;24.70;50.20
67817;DHT22;54614;47.576;7.524;2023-04-25T06:16:00;24.80;50.30
67817;DHT22;54614;47.576;7.524;2023-04-25T06:18:26;24.70;50.30
67817;DHT22;54614;47.576;7.524;2023-04-25T06:20:51;24.70;50.30
67817;DHT22;54614;47.576;7.524;2023-04-25T06:23:17;24.70;50.30
67817;DHT22;54614;47.576;7.524;2023-04-25T06:25:43;24.60;50.30
67817;DHT22;54614;47.576;7.524;2023-04-25T06:28:09;24.70;50.20
67817;DHT22;54614;47.576;7.524;2023-04-25T06:30:35;24.70;50.30
67817;DHT22;54614;47.576;7.524;2023-04-25T06:33:01;24.60;50.10
67817;DHT22;54614;47.576;7.524;2023-04-25T06:35:27;24.70;50.30
67817;DHT22;54614;47.576;7.524;2023-04-25T06:37:52;24.70;50.20
67817;DHT22;54614;47.576;7.524;2023-04-25T06:40:18;24.70;50.20
67817;DHT22;54614;47.576;7.524;2023-04-25T06:42:44;24.60;50.20
67817;DHT22;54614;47.576;7.524;2023-04-25T06:45:10;24.70;50.20
67817;DHT22;54614;47.576;7.524;2023-04-25T06:47:36;24.60;50.10
67817;DHT22;54614;47.576;7.524;2023-04-25T06:50:02;24.70;50.20
67817;DHT22;54614;47.576;7.524;2023-04-25T06:52:28;24.70;50.30
67817;DHT22;54614;47.576;7.524;2023-04-25T06:54:53;24.70;50.10
67817;DHT22;54614;47.576;7.524;2023-04-25T06:57:19;24.60;50.10
67817;DHT22;54614;47.576;7.524;2023-04-25T06:59:45;24.60;50.10
67817;DHT22;54614;47.576;7.524;2023-04-25T07:02:11;24.70;50.20
67817;DHT22;54614;47.576;7.524;2023-04-25T07:04:37;24.70;50.20
67817;DHT22;54614;47.576;7.524;2023-04-25T07:07:03;24.70;50.20
67817;DHT22;54614;47.576;7.524;2023-04-25T07:09:29;24.70;50.20
67817;DHT22;54614;47.576;7.524;2023-04-25T07:11:55;24.60;50.20
67817;DHT22;54614;47.576;7.524;2023-04-25T07:14:22;24.70;50.20
67817;DHT22;54614;47.576;7.524;2023-04-25T07:16:48;24.70;52.30
67817;DHT22;54614;47.576;7.524;2023-04-25T07:19:14;24.60;53.70
67817;DHT22;54614;47.576;7.524;2023-04-25T07:21:40;24.50;53.30
67817;DHT22;54614;47.576;7.524;2023-04-25T07:24:06;24.50;53.00
67817;DHT22;54614;47.576;7.524;2023-04-25T07:26:32;24.50;52.80
67817;DHT22;54614;47.576;7.524;2023-04-25T07:28:58;24.50;52.80
67817;DHT22;54614;47.576;7.524;2023-04-25T07:31:24;24.50;52.50
67817;DHT22;54614;47.576;7.524;2023-04-25T07:33:50;24.40;52.70
67817;DHT22;54614;47.576;7.524;2023-04-25T07:36:16;24.40;52.80
67817;DHT22;54614;47.576;7.524;2023-04-25T07:38:42;24.40;52.80
67817;DHT22;54614;47.576;7.524;2023-04-25T07:41:08;24.40;52.60
67817;DHT22;54614;47.576;7.524;2023-04-25T07:43:33;24.50;52.00
67817;DHT22;54614;47.576;7.524;2023-04-25T07:45:59;24.60;51.50
67817;DHT22;54614;47.576;7.524;2023-04-25T07:48:25;24.70;51.30
67817;DHT22;54614;47.576;7.524;2023-04-25T07:50:51;24.70;51.00
67817;DHT22;54614;47.576;7.524;2023-04-25T07:53:17;24.80;51.00
67817;DHT22;54614;47.576;7.524;2023-04-25T07:55:44;24.80;50.90
67817;DHT22;54614;47.576;7.524;2023-04-25T07:58:10;24.80;51.00
67817;DHT22;54614;47.576;7.524;2023-04-25T08:00:37;24.80;51.00
67817;DHT22;54614;47.576;7.524;2023-04-25T08:03:03;24.90;50.90
67817;DHT22;54614;47.576;7.524;2023-04-25T08:05:29;24.90;51.10
67817;DHT22;54614;47.576;7.524;2023-04-25T08:07:55;24.80;55.10
67817;DHT22;54614;47.576;7.524;2023-04-25T08:10:22;24.70;55.50
67817;DHT22;54614;47.576;7.524;2023-04-25T08:12:48;24.60;55.60
67817;DHT22;54614;47.576;7.524;2023-04-25T08:15:14;24.50;55.80
67817;DHT22;54614;47.576;7.524;2023-04-25T08:17:40;24.60;55.70
67817;DHT22;54614;47.576;7.524;2023-04-25T08:20:07;24.60;57.70
67817;DHT22;54614;47.576;7.524;2023-04-25T08:22:34;24.50;57.70
67817;DHT22;54614;47.576;7.524;2023-04-25T08:25:00;24.60;57.10
67817;DHT22;54614;47.576;7.524;2023-04-25T08:27:26;24.60;56.50
67817;DHT22;54614;47.576;7.524;2023-04-25T08:29:51;24.60;56.10
67817;DHT22;54614;47.576;7.524;2023-04-25T08:32:18;24.60;55.40
67817;DHT22;54614;47.576;7.524;2023-04-25T08:34:45;24.70;55.30
67817;DHT22;54614;47.576;7.524;2023-04-25T08:37:11;24.70;54.90
67817;DHT22;54614;47.576;7.524;2023-04-25T08:39:37;24.80;54.30
67817;DHT22;54614;47.576;7.524;2023-04-25T08:42:05;24.70;55.40
67817;DHT22;54614;47.576;7.524;2023-04-25T08:44:36;24.70;55.10
67817;DHT22;54614;47.576;7.524;2023-04-25T08:47:05;24.70;53.90
67817;DHT22;54614;47.576;7.524;2023-04-25T08:49:32;24.80;53.00
67817;DHT22;54614;47.576;7.524;2023-04-25T08:52:01;24.70;52.80
67817;DHT22;54614;47.576;7.524;2023-04-25T08:54:28;24.80;52.70
67817;DHT22;54614;47.576;7.524;2023-04-25T08:56:57;24.80;52.60
67817;DHT22;54614;47.576;7.524;2023-04-25T08:59:32;24.80;52.40
67817;DHT22;54614;47.576;7.524;2023-04-25T09:01:58;24.80;52.40
67817;DHT22;54614;47.576;7.524;2023-04-25T09:04:24;24.80;52.20
67817;DHT22;54614;47.576;7.524;2023-04-25T09:06:50;24.90;52.50
67817;DHT22;54614;47.576;7.524;2023-04-25T09:09:16;25.00;52.70
67817;DHT22;54614;47.576;7.524;2023-04-25T09:11:41;24.90;53.50
67817;DHT22;54614;47.576;7.524;2023-04-25T09:14:14;24.90;52.80
67817;DHT22;54614;47.576;7.524;2023-04-25T09:19:23;24.90;52.50
67817;DHT22;54614;47.576;7.524;2023-04-25T09:21:51;24.80;52.40
67817;DHT22;54614;47.576;7.524;2023-04-25T09:24:41;24.80;52.40
67817;DHT22;54614;47.576;7.524;2023-04-25T09:27:10;24.80;52.40
67817;DHT22;54614;47.576;7.524;2023-04-25T09:29:39;24.80;52.40
67817;DHT22;54614;47.576;7.524;2023-04-25T09:34:49;24.80;52.30
67817;DHT22;54614;47.576;7.524;2023-04-25T09:37:24;24.80;52.30
67817;DHT22;54614;47.576;7.524;2023-04-25T09:39:56;24.80;52.20
67817;DHT22;54614;47.576;7.524;2023-04-25T09:42:30;24.80;52.30
67817;DHT22;54614;47.576;7.524;2023-04-25T09:44:58;24.80;52.10
67817;DHT22;54614;47.576;7.524;2023-04-25T09:47:25;24.80;52.10
67817;DHT22;54614;47.576;7.524;2023-04-25T09:49:52;24.80;52.10
67817;DHT22;54614;47.576;7.524;2023-04-25T09:52:25;24.80;51.90
67817;DHT22;54614;47.576;7.524;2023-04-25T09:54:51;24.90;52.00
67817;DHT22;54614;47.576;7.524;2023-04-25T09:57:20;24.90;51.70
67817;DHT22;54614;47.576;7.524;2023-04-25T09:59:52;24.90;51.80
67817;DHT22;54614;47.576;7.524;2023-04-25T10:02:26;24.90;52.30
67817;DHT22;54614;47.576;7.524;2023-04-25T10:04:54;24.90;51.70
67817;DHT22;54614;47.576;7.524;2023-04-25T10:07:23;24.90;51.60
67817;DHT22;54614;47.576;7.524;2023-04-25T10:09:59;24.90;51.50
67817;DHT22;54614;47.576;7.524;2023-04-25T10:12:28;24.90;51.50
67817;DHT22;54614;47.576;7.524;2023-04-25T10:14:55;25.00;51.50
67817;DHT22;54614;47.576;7.524;2023-04-25T10:17:21;25.00;51.30
67817;DHT22;54614;47.576;7.524;2023-04-25T10:19:47;25.00;51.50
67817;DHT22;54614;47.576;7.524;2023-04-25T10:22:32;24.90;51.30
67817;DHT22;54614;47.576;7.524;2023-04-25T10:25:01;25.00;51.00
67817;DHT22;54614;47.576;7.524;2023-04-25T10:27:31;25.10;51.30
67817;DHT22;54614;47.576;7.524;2023-04-25T10:30:08;25.00;51.20
67817;DHT22;54614;47.576;7.524;2023-04-25T10:32:36;25.00;51.20
67817;DHT22;54614;47.576;7.524;2023-04-25T10:35:12;25.00;51.30
67817;DHT22;54614;47.576;7.524;2023-04-25T10:38:08;25.00;51.30
67817;DHT22;54614;47.576;7.524;2023-04-25T10:40:35;25.00;51.20
67817;DHT22;54614;47.576;7.524;2023-04-25T10:46:02;24.90;51.10
67817;DHT22;54614;47.576;7.524;2023-04-25T10:48:30;25.00;51.20
67817;DHT22;54614;47.576;7.524;2023-04-25T10:51:09;25.00;51.20
67817;DHT22;54614;47.576;7.524;2023-04-25T10:53:36;24.90;51.20
67817;DHT22;54614;47.576;7.524;2023-04-25T10:56:21;25.00;51.30
67817;DHT22;54614;47.576;7.524;2023-04-25T10:58:49;24.90;51.10
67817;DHT22;54614;47.576;7.524;2023-04-25T11:01:24;24.90;51.10
67817;DHT22;54614;47.576;7.524;2023-04-25T11:03:57;25.00;51.10
67817;DHT22;54614;47.576;7.524;2023-04-25T11:06:31;25.00;50.90
67817;DHT22;54614;47.576;7.524;2023-04-25T11:09:18;25.00;50.60
67817;DHT22;54614;47.576;7.524;2023-04-25T11:11:56;25.00;50.80
67817;DHT22;54614;47.576;7.524;2023-04-25T11:14:23;25.00;50.60
67817;DHT22;54614;47.576;7.524;2023-04-25T11:16:57;25.00;50.40
67817;DHT22;54614;47.576;7.524;2023-04-25T11:19:26;25.10;50.50
67817;DHT22;54614;47.576;7.524;2023-04-25T11:21:59;25.10;50.70
67817;DHT22;54614;47.576;7.524;2023-04-25T11:24:30;25.00;50.50
67817;DHT22;54614;47.576;7.524;2023-04-25T11:26:59;25.10;50.40
67817;DHT22;54614;47.576;7.524;2023-04-25T11:29:28;25.10;50.50
67817;DHT22;54614;47.576;7.524;2023-04-25T11:31:56;25.10;50.40
67817;DHT22;54614;47.576;7.524;2023-04-25T11:34:24;25.10;50.40
67817;DHT22;54614;47.576;7.524;2023-04-25T11:36:53;25.10;50.20
67817;DHT22;54614;47.576;7.524;2023-04-25T11:39:20;25.10;50.20
67817;DHT22;54614;47.576;7.524;2023-04-25T11:41:46;25.20;50.30
67817;DHT22;54614;47.576;7.524;2023-04-25T11:44:15;25.10;50.30
67817;DHT22;54614;47.576;7.524;2023-04-25T11:46:45;25.20;50.40
67817;DHT22;54614;47.576;7.524;2023-04-25T11:49:12;25.20;50.40
67817;DHT22;54614;47.576;7.524;2023-04-25T11:51:42;25.10;50.30
67817;DHT22;54614;47.576;7.524;2023-04-25T11:54:13;25.20;50.40
67817;DHT22;54614;47.576;7.524;2023-04-25T11:56:44;25.20;50.40
67817;DHT22;54614;47.576;7.524;2023-04-25T11:59:11;25.20;50.60
67817;DHT22;54614;47.576;7.524;2023-04-25T12:01:41;25.20;
67817;DHT22;54614;47.576;7.524;2023-04-25T12:04:18;25.20;50.20
67817;DHT22;54614;47.576;7.524;2023-04-25T12:06:46;25.20;50.20
67817;DHT22;54614;47.576;7.524;2023-04-25T12:09:16;25.10;50.00
67817;DHT22;54614;47.576;7.524;2023-04-25T12:11:54;25.10;50.00
67817;DHT22;54614;47.576;7.524;2023-04-25T12:14:23;25.20;50.20
67817;DHT22;54614;47.576;7.524;2023-04-25T12:16:54;25.20;50.30
67817;DHT22;54614;47.576;7.524;2023-04-25T12:19:21;25.10;50.30
67817;DHT22;54614;47.576;7.524;2023-04-25T12:21:48;25.10;50.40
67817;DHT22;54614;47.576;7.524;2023-04-25T12:24:17;25.20;50.40
67817;DHT22;54614;47.576;7.524;2023-04-25T12:26:59;25.20;50.40
67817;DHT22;54614;47.576;7.524;2023-04-25T12:29:28;25.20;50.50
67817;DHT22;54614;47.576;7.524;2023-04-25T12:31:55;25.20;50.40
67817;DHT22;54614;47.576;7.524;2023-04-25T12:34:22;25.20;50.30
67817;DHT22;54614;47.576;7.524;2023-04-25T12:36:50;25.20;50.30
67817;DHT22;54614;47.576;7.524;2023-04-25T12:39:23;25.10;50.20
67817;DHT22;54614;47.576;7.524;2023-04-25T12:41:50;25.20;50.40
67817;DHT22;54614;47.576;7.524;2023-04-25T12:44:20;25.20;50.40
67817;DHT22;54614;47.576;7.524;2023-04-25T12:46:47;25.20;50.50
67817;DHT22;54614;47.576;7.524;2023-04-25T12:49:13;25.20;50.50
67817;DHT22;54614;47.576;7.524;2023-04-25T12:51:40;25.20;51.10
67817;DHT22;54614;47.576;7.524;2023-04-25T12:54:07;25.20;50.50
67817;DHT22;54614;47.576;7.524;2023-04-25T12:56:34;25.20;50.60
67817;DHT22;54614;47.576;7.524;2023-04-25T12:59:00;25.20;50.60
67817;DHT22;54614;47.576;7.524;2023-04-25T13:01:28;25.10;50.30
67817;DHT22;54614;47.576;7.524;2023-04-25T13:03:54;25.10;50.20
67817;DHT22;54614;47.576;7.524;2023-04-25T13:06:22;25.10;50.20
67817;DHT22;54614;47.576;7.524;2023-04-25T13:08:48;25.10;50.30
67817;DHT22;54614;47.576;7.524;2023-04-25T13:11:14;25.20;50.50
67817;DHT22;54614;47.576;7.524;2023-04-25T13:13:40;25.20;50.50
67817;DHT22;54614;47.576;7.524;2023-04-25T13:16:07;25.20;50.50
67817;DHT22;54614;47.576;7.524;2023-04-25T13:18:33;25.20;50.60
67817;DHT22;54614;47.576;7.524;2023-04-25T13:20:59;25.20;50.60
67817;DHT22;54614;47.576;7.524;2023-04-25T13:23:26;25.20;50.60
67817;DHT22;54614;47.576;7.524;2023-04-25T13:25:54;25.20;50.60
67817;DHT22;54614;47.576;7.524;2023-04-25T13:28:26;25.20;50.40
67817;DHT22;54614;47.576;7.524;2023-04-25T13:30:53;25.20;50.30
67817;DHT22;54614;47.576;7.524;2023-04-25T13:33:19;25.10;50.20
67817;DHT22;54614;47.576;7.524;2023-04-25T13:35:47;25.10;50.30
67817;DHT22;54614;47.576;7.524;2023-04-25T13:38:23;25.20;50.60
67817;DHT22;54614;47.576;7.524;2023-04-25T13:40:51;25.20;50.50
67817;DHT22;54614;47.576;7.524;2023-04-25T13:43:21;25.10;50.70
67817;DHT22;54614;47.576;7.524;2023-04-25T13:45:48;25.20;50.60
67817;DHT22;54614;47.576;7.524;2023-04-25T13:48:15;25.20;50.60
67817;DHT22;54614;47.576;7.524;2023-04-25T13:50:41;25.20;50.60
67817;DHT22;54614;47.576;7.524;2023-04-25T13:53:07;25.20;50.60
67817;DHT22;54614;47.576;7.524;2023-04-25T13:55:34;25.10;50.40
67817;DHT22;54614;47.576;7.524;2023-04-25T13:58:02;25.20;50.30
67817;DHT22;54614;47.576;7.524;2023-04-25T14:00:34;25.10;50.20
67817;DHT22;54614;47.576;7.524;2023-04-25T14:03:02;25.20;50.40
67817;DHT22;54614;47.576;7.524;2023-04-25T14:05:30;25.20;50.50
67817;DHT22;54614;47.576;7.524;2023-04-25T14:07:56;25.20;50.60
67817;DHT22;54614;47.576;7.524;2023-04-25T14:10:22;25.10;50.50
67817;DHT22;54614;47.576;7.524;2023-04-25T14:12:48;25.20;50.70
67817;DHT22;54614;47.576;7.524;2023-04-25T14:15:13;25.20;50.70
67817;DHT22;54614;47.576;7.524;2023-04-25T14:17:39;25.20;50.70
67817;DHT22;54614;47.576;7.524;2023-04-25T14:20:06;25.20;50.70
67817;DHT22;54614;47.576;7.524;2023-04-25T14:22:34;25.20;50.60
67817;DHT22;54614;47.576;7.524;2023-04-25T14:25:00;25.10;50.40
67817;DHT22;54614;47.576;7.524;2023-04-25T14:27:26;25.20;50.40
67817;DHT22;54614;47.576;7.524;2023-04-25T14:29:53;25.20;50.60
67817;DHT22;54614;47.576;7.524;2023-04-25T14:32:19;25.20;50.70
67817;DHT22;54614;47.576;7.524;2023-04-25T14:34:45;25.10;50.70
67817;DHT22;54614;47.576;7.524;2023-04-25T14:37:11;25.20;50.80
67817;DHT22;54614;47.576;7.524;2023-04-25T14:39:37;25.10;50.70
67817;DHT22;54614;47.576;7.524;2023-04-25T14:42:03;25.20;50.80
67817;DHT22;54614;47.576;7.524;2023-04-25T14:44:29;25.10;50.80
67817;DHT22;54614;47.576;7.524;2023-04-25T14:46:55;25.20;50.90
67817;DHT22;54614;47.576;7.524;2023-04-25T14:49:21;25.10;50.60
67817;DHT22;54614;47.576;7.524;2023-04-25T14:51:47;25.10;50.40
67817;DHT22;54614;47.576;7.524;2023-04-25T14:54:12;25.10;50.40
67817;DHT22;54614;47.576;7.524;2023-04-25T14:56:38;25.10;50.60
67817;DHT22;54614;47.576;7.524;2023-04-25T14:59:04;25.10;50.70
67817;DHT22;54614;47.576;7.524;2023-04-25T15:01:30;25.10;50.70
67817;DHT22;54614;47.576;7.524;2023-04-25T15:03:56;25.10;50.70
67817;DHT22;54614;47.576;7.524;2023-04-25T15:06:22;25.10;50.80
67817;DHT22;54614;47.576;7.524;2023-04-25T15:08:51;25.10;50.70
67817;DHT22;54614;47.576;7.524;2023-04-25T15:11:18;25.10;50.80
67817;DHT22;54614;47.576;7.524;2023-04-25T15:13:46;25.10;50.80
67817;DHT22;54614;47.576;7.524;2023-04-25T15:16:13;25.10;50.70
67817;DHT22;54614;47.576;7.524;2023-04-25T15:18:39;25.10;50.50
67817;DHT22;54614;47.576;7.524;2023-04-25T15:21:06;25.10;50.50
67817;DHT22;54614;47.576;7.524;2023-04-25T15:23:31;25.10;50.60
67817;DHT22;54614;47.576;7.524;2023-04-25T15:25:57;25.10;50.60
67817;DHT22;54614;47.576;7.524;2023-04-25T15:28:23;25.00;51.20
67817;DHT22;54614;47.576;7.524;2023-04-25T15:30:49;25.10;50.70
67817;DHT22;54614;47.576;7.524;2023-04-25T15:33:15;25.00;50.70
67817;DHT22;54614;47.576;7.524;2023-04-25T15:35:41;25.10;50.80
67817;DHT22;54614;47.576;7.524;2023-04-25T15:38:08;25.10;50.70
67817;DHT22;54614;47.576;7.524;2023-04-25T15:40:35;25.10;50.90